sensor_id;sensor_type;location;lat;lon;timestamp;temperature;humidity
6654;DHT22;3363;50.942;7.034;2023-08-20T00:02:26;24.10;95.10
6654;DHT22;3363;50.942;7.034;2023-08-20T00:04:54;24.10;95.40
6654;DHT22;3363;50.942;7.034;2023-08-20T00:07:22;24.10;95.40
6654;DHT22;3363;50.942;7.034;2023-08-20T00:09:49;24.10;95.40
6654;DHT22;3363;50.942;7.034;2023-08-20T00:12:15;24.00;95.40
6654;DHT22;3363;50.942;7.034;2023-08-20T00:14:53;24.00;95.40
6654;DHT22;3363;50.942;7.034;2023-08-20T00:17:20;24.00;95.40
6654;DHT22;3363;50.942;7.034;2023-08-20T00:19:50;24.00;95.70
6654;DHT22;3363;50.942;7.034;2023-08-20T00:22:17;24.00;95.60
6654;DHT22;3363;50.942;7.034;2023-08-20T00:24:44;24.00;95.70
6654;DHT22;3363;50.942;7.034;2023-08-20T00:27:10;23.90;95.50
6654;DHT22;3363;50.942;7.034;2023-08-20T00:29:37;24.00;95.50
6654;DHT22;3363;50.942;7.034;2023-08-20T00:32:05;23.90;95.60
6654;DHT22;3363;50.942;7.034;2023-08-20T00:34:33;23.90;95.60
6654;DHT22;3363;50.942;7.034;2023-08-20T00:37:00;23.90;95.60
6654;DHT22;3363;50.942;7.034;2023-08-20T00:39:26;23.90;95.60
6654;DHT22;3363;50.942;7.034;2023-08-20T00:41:53;23.90;95.60
6654;DHT22;3363;50.942;7.034;2023-08-20T00:44:20;23.80;95.90
6654;DHT22;3363;50.942;7.034;2023-08-20T00:46:46;23.80;96.30
6654;DHT22;3363;50.942;7.034;2023-08-20T00:49:14;23.80;96.30
6654;DHT22;3363;50.942;7.034;2023-08-20T00:51:41;23.80;96.30
6654;DHT22;3363;50.942;7.034;2023-08-20T00:54:08;23.80;96.10
6654;DHT22;3363;50.942;7.034;2023-08-20T00:56:36;23.80;96.30
6654;DHT22;3363;50.942;7.034;2023-08-20T00:59:04;23.80;96.40
6654;DHT22;3363;50.942;7.034;2023-08-20T01:01:30;23.80;96.40
6654;DHT22;3363;50.942;7.034;2023-08-20T01:03:57;23.80;96.30
6654;DHT22;3363;50.942;7.034;2023-08-20T01:06:27;23.80;96.30
6654;DHT22;3363;50.942;7.034;2023-08-20T01:08:57;23.80;96.40
6654;DHT22;3363;50.942;7.034;2023-08-20T01:11:26;23.70;96.40
6654;DHT22;3363;50.942;7.034;2023-08-20T01:13:55;23.70;96.50
6654;DHT22;3363;50.942;7.034;2023-08-20T01:16:21;23.70;96.40
6654;DHT22;3363;50.942;7.034;2023-08-20T01:18:48;23.70;96.50
6654;DHT22;3363;50.942;7.034;2023-08-20T01:21:26;23.70;96.50
6654;DHT22;3363;50.942;7.034;2023-08-20T01:24:10;23.70;96.40
6654;DHT22;3363;50.942;7.034;2023-08-20T01:26:56;23.60;96.40
6654;DHT22;3363;50.942;7.034;2023-08-20T01:29:26;23.60;96.50
6654;DHT22;3363;50.942;7.034;2023-08-20T01:31:53;23.60;96.50
6654;DHT22;3363;50.942;7.034;2023-08-20T01:34:20;23.60;96.50
6654;DHT22;3363;50.942;7.034;2023-08-20T01:36:47;23.60;96.40
6654;DHT22;3363;50.942;7.034;2023-08-20T01:39:14;23.60;96.50
6654;DHT22;3363;50.942;7.034;2023-08-20T01:41:43;23.50;96.40
6654;DHT22;3363;50.942;7.034;2023-08-20T01:44:10;23.60;96.60
6654;DHT22;3363;50.942;7.034;2023-08-20T01:46:38;23.50;96.30
6654;DHT22;3363;50.942;7.034;2023-08-20T01:49:05;23.50;96.00
6654;DHT22;3363;50.942;7.034;2023-08-20T01:51:31;23.50;96.00
6654;DHT22;3363;50.942;7.034;2023-08-20T01:53:58;23.50;96.00
6654;DHT22;3363;50.942;7.034;2023-08-20T01:56:25;23.50;96.10
6654;DHT22;3363;50.942;7.034;2023-08-20T01:58:51;23.50;95.90
6654;DHT22;3363;50.942;7.034;2023-08-20T02:01:18;23.50;95.90
6654;DHT22;3363;50.942;7.034;2023-08-20T02:03:46;23.50;95.90
6654;DHT22;3363;50.942;7.034;2023-08-20T02:06:12;23.50;95.90
6654;DHT22;3363;50.942;7.034;2023-08-20T02:08:39;23.50;96.00
6654;DHT22;3363;50.942;7.034;2023-08-20T02:11:06;23.40;96.40
6654;DHT22;3363;50.942;7.034;2023-08-20T02:13:32;23.40;96.40
6654;DHT22;3363;50.942;7.034;2023-08-20T02:15:59;23.40;96.40
6654;DHT22;3363;50.942;7.034;2023-08-20T02:18:26;23.40;96.60
6654;DHT22;3363;50.942;7.034;2023-08-20T02:20:54;23.40;96.70
6654;DHT22;3363;50.942;7.034;2023-08-20T02:23:21;23.40;96.80
6654;DHT22;3363;50.942;7.034;2023-08-20T02:25:48;23.40;96.80
6654;DHT22;3363;50.942;7.034;2023-08-20T02:28:14;23.30;96.80
6654;DHT22;3363;50.942;7.034;2023-08-20T02:30:41;23.40;97.10
6654;DHT22;3363;50.942;7.034;2023-08-20T02:33:08;23.40;97.30
6654;DHT22;3363;50.942;7.034;2023-08-20T02:35:35;23.40;97.30
6654;DHT22;3363;50.942;7.034;2023-08-20T02:38:03;23.30;97.40
6654;DHT22;3363;50.942;7.034;2023-08-20T02:40:30;23.30;97.40
6654;DHT22;3363;50.942;7.034;2023-08-20T02:42:56;23.30;97.50
6654;DHT22;3363;50.942;7.034;2023-08-20T02:45:23;23.30;97.80
6654;DHT22;3363;50.942;7.034;2023-08-20T02:47:50;23.30;97.70
6654;DHT22;3363;50.942;7.034;2023-08-20T02:50:17;23.30;97.80
6654;DHT22;3363;50.942;7.034;2023-08-20T02:52:44;23.30;98.10
6654;DHT22;3363;50.942;7.034;2023-08-20T02:55:12;23.30;98.00
6654;DHT22;3363;50.942;7.034;2023-08-20T02:57:39;23.30;97.90
6654;DHT22;3363;50.942;7.034;2023-08-20T03:00:06;23.20;97.80
6654;DHT22;3363;50.942;7.034;2023-08-20T03:02:36;23.20;97.80
6654;DHT22;3363;50.942;7.034;2023-08-20T03:05:03;23.20;97.80
6654;DHT22;3363;50.942;7.034;2023-08-20T03:07:31;23.20;98.10
6654;DHT22;3363;50.942;7.034;2023-08-20T03:09:58;23.20;98.30
6654;DHT22;3363;50.942;7.034;2023-08-20T03:12:26;23.20;98.30
6654;DHT22;3363;50.942;7.034;2023-08-20T03:14:52;23.20;98.30
6654;DHT22;3363;50.942;7.034;2023-08-20T03:17:19;23.20;98.40
6654;DHT22;3363;50.942;7.034;2023-08-20T03:19:53;23.20;98.40
6654;DHT22;3363;50.942;7.034;2023-08-20T03:22:20;23.20;98.40
6654;DHT22;3363;50.942;7.034;2023-08-20T03:24:46;23.10;98.40
6654;DHT22;3363;50.942;7.034;2023-08-20T03:27:13;23.10;98.60
6654;DHT22;3363;50.942;7.034;2023-08-20T03:29:41;23.10;98.70
6654;DHT22;3363;50.942;7.034;2023-08-20T03:32:08;23.10;98.90
6654;DHT22;3363;50.942;7.034;2023-08-20T03:34:34;23.10;99.00
6654;DHT22;3363;50.942;7.034;2023-08-20T03:37:01;23.10;99.20
6654;DHT22;3363;50.942;7.034;2023-08-20T03:39:28;23.10;99.30
6654;DHT22;3363;50.942;7.034;2023-08-20T03:41:54;23.10;99.40
6654;DHT22;3363;50.942;7.034;2023-08-20T03:44:21;23.00;99.40
6654;DHT22;3363;50.942;7.034;2023-08-20T03:46:49;23.00;99.30
6654;DHT22;3363;50.942;7.034;2023-08-20T03:49:15;23.00;99.40
6654;DHT22;3363;50.942;7.034;2023-08-20T03:51:42;23.00;99.50
6654;DHT22;3363;50.942;7.034;2023-08-20T03:54:09;23.00;99.60
6654;DHT22;3363;50.942;7.034;2023-08-20T03:56:35;23.00;99.60
6654;DHT22;3363;50.942;7.034;2023-08-20T03:59:02;23.00;99.50
6654;DHT22;3363;50.942;7.034;2023-08-20T04:01:29;23.00;99.60
6654;DHT22;3363;50.942;7.034;2023-08-20T04:03:57;23.00;99.70
6654;DHT22;3363;50.942;7.034;2023-08-20T04:06:23;22.90;99.90
6654;DHT22;3363;50.942;7.034;2023-08-20T04:08:50;22.90;99.50
6654;DHT22;3363;50.942;7.034;2023-08-20T04:11:17;22.90;99.60
6654;DHT22;3363;50.942;7.034;2023-08-20T04:13:43;22.90;99.70
6654;DHT22;3363;50.942;7.034;2023-08-20T04:16:11;22.90;99.80
6654;DHT22;3363;50.942;7.034;2023-08-20T04:18:38;22.90;99.70
6654;DHT22;3363;50.942;7.034;2023-08-20T04:21:06;22.90;99.50
6654;DHT22;3363;50.942;7.034;2023-08-20T04:23:33;22.90;99.60
6654;DHT22;3363;50.942;7.034;2023-08-20T04:26:00;22.90;99.60
6654;DHT22;3363;50.942;7.034;2023-08-20T04:28:26;22.80;99.40
6654;DHT22;3363;50.942;7.034;2023-08-20T04:30:53;22.80;99.90
6654;DHT22;3363;50.942;7.034;2023-08-20T04:33:21;22.80;99.90
6654;DHT22;3363;50.942;7.034;2023-08-20T04:35:48;22.80;99.90
6654;DHT22;3363;50.942;7.034;2023-08-20T04:38:18;22.80;99.90
6654;DHT22;3363;50.942;7.034;2023-08-20T04:40:45;22.70;99.70
6654;DHT22;3363;50.942;7.034;2023-08-20T04:43:12;22.60;99.90
6654;DHT22;3363;50.942;7.034;2023-08-20T04:45:39;22.70;99.90
6654;DHT22;3363;50.942;7.034;2023-08-20T04:48:06;22.70;99.90
6654;DHT22;3363;50.942;7.034;2023-08-20T04:50:32;22.70;99.90
6654;DHT22;3363;50.942;7.034;2023-08-20T04:52:59;22.70;99.90
6654;DHT22;3363;50.942;7.034;2023-08-20T04:55:27;22.70;99.90
6654;DHT22;3363;50.942;7.034;2023-08-20T04:57:54;22.70;99.90
6654;DHT22;3363;50.942;7.034;2023-08-20T05:00:21;22.70;99.90
6654;DHT22;3363;50.942;7.034;2023-08-20T05:02:47;22.70;99.90
6654;DHT22;3363;50.942;7.034;2023-08-20T05:05:14;22.70;99.90
6654;DHT22;3363;50.942;7.034;2023-08-20T05:07:41;22.70;99.90
6654;DHT22;3363;50.942;7.034;2023-08-20T05:10:07;22.70;99.90
6654;DHT22;3363;50.942;7.034;2023-08-20T05:12:35;22.70;99.90
6654;DHT22;3363;50.942;7.034;2023-08-20T05:15:02;22.70;99.90
6654;DHT22;3363;50.942;7.034;2023-08-20T05:17:29;22.70;99.90
6654;DHT22;3363;50.942;7.034;2023-08-20T05:19:56;22.70;99.90
6654;DHT22;3363;50.942;7.034;2023-08-20T05:22:22;22.70;99.90
6654;DHT22;3363;50.942;7.034;2023-08-20T05:24:49;22.70;99.90
6654;DHT22;3363;50.942;7.034;2023-08-20T05:27:16;22.70;99.90
6654;DHT22;3363;50.942;7.034;2023-08-20T05:29:44;22.70;99.90
6654;DHT22;3363;50.942;7.034;2023-08-20T05:32:11;22.70;99.90
6654;DHT22;3363;50.942;7.034;2023-08-20T05:34:39;22.80;99.90
6654;DHT22;3363;50.942;7.034;2023-08-20T05:37:06;22.80;99.90
6654;DHT22;3363;50.942;7.034;2023-08-20T05:39:36;22.80;99.90
6654;DHT22;3363;50.942;7.034;2023-08-20T05:42:03;22.80;99.90
6654;DHT22;3363;50.942;7.034;2023-08-20T05:44:30;22.80;99.90
6654;DHT22;3363;50.942;7.034;2023-08-20T05:46:59;22.70;99.90
6654;DHT22;3363;50.942;7.034;2023-08-20T05:49:26;22.80;99.90
6654;DHT22;3363;50.942;7.034;2023-08-20T05:51:53;22.80;99.90
6654;DHT22;3363;50.942;7.034;2023-08-20T05:54:19;22.80;99.90
6654;DHT22;3363;50.942;7.034;2023-08-20T05:56:46;22.80;99.90
6654;DHT22;3363;50.942;7.034;2023-08-20T05:59:12;22.80;99.90
6654;DHT22;3363;50.942;7.034;2023-08-20T06:01:39;22.80;99.90
6654;DHT22;3363;50.942;7.034;2023-08-20T06:04:07;22.80;99.90
6654;DHT22;3363;50.942;7.034;2023-08-20T06:06:34;22.80;99.90
6654;DHT22;3363;50.942;7.034;2023-08-20T06:09:01;22.80;99.90
6654;DHT22;3363;50.942;7.034;2023-08-20T06:11:28;22.80;99.90
6654;DHT22;3363;50.942;7.034;2023-08-20T06:13:54;22.90;99.90
6654;DHT22;3363;50.942;7.034;2023-08-20T06:16:21;22.90;99.90
6654;DHT22;3363;50.942;7.034;2023-08-20T06:18:47;22.90;99.90
6654;DHT22;3363;50.942;7.034;2023-08-20T06:21:15;22.60;99.90
6654;DHT22;3363;50.942;7.034;2023-08-20T06:23:42;22.50;99.90
6654;DHT22;3363;50.942;7.034;2023-08-20T06:26:09;22.60;99.90
6654;DHT22;3363;50.942;7.034;2023-08-20T06:28:35;22.60;99.90
6654;DHT22;3363;50.942;7.034;2023-08-20T06:31:02;22.70;99.90
6654;DHT22;3363;50.942;7.034;2023-08-20T06:33:28;22.80;99.90
6654;DHT22;3363;50.942;7.034;2023-08-20T06:35:55;22.90;99.90
6654;DHT22;3363;50.942;7.034;2023-08-20T06:38:23;22.80;99.90
6654;DHT22;3363;50.942;7.034;2023-08-20T06:40:50;22.90;99.90
6654;DHT22;3363;50.942;7.034;2023-08-20T06:43:17;23.00;99.90
6654;DHT22;3363;50.942;7.034;2023-08-20T06:45:43;22.90;99.90
6654;DHT22;3363;50.942;7.034;2023-08-20T06:48:10;22.80;99.90
6654;DHT22;3363;50.942;7.034;2023-08-20T06:50:37;22.80;99.90
6654;DHT22;3363;50.942;7.034;2023-08-20T06:53:03;22.80;99.90
6654;DHT22;3363;50.942;7.034;2023-08-20T06:55:32;22.70;99.90
6654;DHT22;3363;50.942;7.034;2023-08-20T06:57:58;22.90;99.90
6654;DHT22;3363;50.942;7.034;2023-08-20T07:00:25;22.90;99.90
6654;DHT22;3363;50.942;7.034;2023-08-20T07:02:51;22.90;99.90
6654;DHT22;3363;50.942;7.034;2023-08-20T07:05:18;22.90;99.90
6654;DHT22;3363;50.942;7.034;2023-08-20T07:07:46;22.90;99.90
6654;DHT22;3363;50.942;7.034;2023-08-20T07:10:12;22.80;99.90
6654;DHT22;3363;50.942;7.034;2023-08-20T07:12:40;22.80;99.90
6654;DHT22;3363;50.942;7.034;2023-08-20T07:15:07;22.70;99.90
6654;DHT22;3363;50.942;7.034;2023-08-20T07:17:34;22.70;99.90
6654;DHT22;3363;50.942;7.034;2023-08-20T07:20:01;22.70;99.90
6654;DHT22;3363;50.942;7.034;2023-08-20T07:22:28;22.70;99.90
6654;DHT22;3363;50.942;7.034;2023-08-20T07:24:54;22.70;99.90
6654;DHT22;3363;50.942;7.034;2023-08-20T07:27:22;22.70;99.90
6654;DHT22;3363;50.942;7.034;2023-08-20T07:29:50;22.70;99.90
6654;DHT22;3363;50.942;7.034;2023-08-20T07:32:16;22.80;99.90
6654;DHT22;3363;50.942;7.034;2023-08-20T07:34:43;22.90;99.90
6654;DHT22;3363;50.942;7.034;2023-08-20T07:37:09;22.90;99.90
6654;DHT22;3363;50.942;7.034;2023-08-20T07:39:36;22.90;99.90
6654;DHT22;3363;50.942;7.034;2023-08-20T07:42:03;22.90;99.90
6654;DHT22;3363;50.942;7.034;2023-08-20T07:44:30;22.90;99.90
6654;DHT22;3363;50.942;7.034;2023-08-20T07:46:57;22.90;99.90
6654;DHT22;3363;50.942;7.034;2023-08-20T07:49:24;22.80;99.90
6654;DHT22;3363;50.942;7.034;2023-08-20T07:51:51;22.90;99.90
6654;DHT22;3363;50.942;7.034;2023-08-20T07:54:19;22.90;99.90
6654;DHT22;3363;50.942;7.034;2023-08-20T07:56:46;23.00;99.90
6654;DHT22;3363;50.942;7.034;2023-08-20T07:59:13;22.90;99.90
6654;DHT22;3363;50.942;7.034;2023-08-20T08:01:39;22.90;99.90
6654;DHT22;3363;50.942;7.034;2023-08-20T08:04:07;22.90;99.90
6654;DHT22;3363;50.942;7.034;2023-08-20T08:06:34;22.90;99.90
6654;DHT22;3363;50.942;7.034;2023-08-20T08:09:14;22.90;99.90
6654;DHT22;3363;50.942;7.034;2023-08-20T08:11:41;23.00;99.90
6654;DHT22;3363;50.942;7.034;2023-08-20T08:14:07;23.00;99.90
6654;DHT22;3363;50.942;7.034;2023-08-20T08:16:34;23.00;99.90
6654;DHT22;3363;50.942;7.034;2023-08-20T08:19:01;23.00;99.90
6654;DHT22;3363;50.942;7.034;2023-08-20T08:21:29;23.10;99.90
6654;DHT22;3363;50.942;7.034;2023-08-20T08:23:55;23.10;99.90
6654;DHT22;3363;50.942;7.034;2023-08-20T08:26:22;23.10;99.90
6654;DHT22;3363;50.942;7.034;2023-08-20T08:28:49;23.20;99.90
6654;DHT22;3363;50.942;7.034;2023-08-20T08:31:15;23.20;99.90
6654;DHT22;3363;50.942;7.034;2023-08-20T08:33:42;23.20;99.90
6654;DHT22;3363;50.942;7.034;2023-08-20T08:36:09;23.30;99.90
6654;DHT22;3363;50.942;7.034;2023-08-20T08:38:37;23.30;99.90
6654;DHT22;3363;50.942;7.034;2023-08-20T08:41:04;23.40;99.90
6654;DHT22;3363;50.942;7.034;2023-08-20T08:43:35;23.40;99.90
6654;DHT22;3363;50.942;7.034;2023-08-20T08:46:03;23.50;99.90
6654;DHT22;3363;50.942;7.034;2023-08-20T08:48:32;23.50;99.90
6654;DHT22;3363;50.942;7.034;2023-08-20T08:51:00;23.50;99.90
6654;DHT22;3363;50.942;7.034;2023-08-20T08:53:27;23.60;99.90
6654;DHT22;3363;50.942;7.034;2023-08-20T08:55:55;23.60;99.90
6654;DHT22;3363;50.942;7.034;2023-08-20T08:58:22;23.60;99.90
6654;DHT22;3363;50.942;7.034;2023-08-20T09:00:48;23.70;99.90
6654;DHT22;3363;50.942;7.034;2023-08-20T09:03:15;23.90;99.90
6654;DHT22;3363;50.942;7.034;2023-08-20T09:05:45;23.90;99.90
6654;DHT22;3363;50.942;7.034;2023-08-20T09:08:18;24.00;99.90
6654;DHT22;3363;50.942;7.034;2023-08-20T09:10:45;24.10;99.90
6654;DHT22;3363;50.942;7.034;2023-08-20T09:13:13;24.10;99.90
6654;DHT22;3363;50.942;7.034;2023-08-20T09:15:39;24.20;99.90
6654;DHT22;3363;50.942;7.034;2023-08-20T09:18:09;24.30;99.90
6654;DHT22;3363;50.942;7.034;2023-08-20T09:20:36;24.30;99.10
6654;DHT22;3363;50.942;7.034;2023-08-20T09:23:02;24.40;96.60
6654;DHT22;3363;50.942;7.034;2023-08-20T09:25:29;24.50;99.90
6654;DHT22;3363;50.942;7.034;2023-08-20T09:27:56;24.50;97.80
6654;DHT22;3363;50.942;7.034;2023-08-20T09:30:24;24.80;95.70
6654;DHT22;3363;50.942;7.034;2023-08-20T09:33:02;25.00;92.80
6654;DHT22;3363;50.942;7.034;2023-08-20T09:35:29;25.10;90.40
6654;DHT22;3363;50.942;7.034;2023-08-20T09:37:58;25.10;90.10
6654;DHT22;3363;50.942;7.034;2023-08-20T09:40:24;25.10;92.20
6654;DHT22;3363;50.942;7.034;2023-08-20T09:42:51;25.00;90.10
6654;DHT22;3363;50.942;7.034;2023-08-20T09:45:20;25.00;91.40
6654;DHT22;3363;50.942;7.034;2023-08-20T09:47:48;25.00;93.40
6654;DHT22;3363;50.942;7.034;2023-08-20T09:50:16;25.00;94.10
6654;DHT22;3363;50.942;7.034;2023-08-20T09:52:44;25.00;91.80
6654;DHT22;3363;50.942;7.034;2023-08-20T09:55:16;25.10;90.30
6654;DHT22;3363;50.942;7.034;2023-08-20T09:57:43;25.20;80.40
6654;DHT22;3363;50.942;7.034;2023-08-20T10:00:11;25.00;89.80
6654;DHT22;3363;50.942;7.034;2023-08-20T10:02:38;24.90;90.50
6654;DHT22;3363;50.942;7.034;2023-08-20T10:05:07;24.80;89.80
6654;DHT22;3363;50.942;7.034;2023-08-20T10:07:34;24.70;91.70
6654;DHT22;3363;50.942;7.034;2023-08-20T10:10:01;24.70;94.40
6654;DHT22;3363;50.942;7.034;2023-08-20T10:12:28;24.60;92.60
6654;DHT22;3363;50.942;7.034;2023-08-20T10:14:55;24.60;92.90
6654;DHT22;3363;50.942;7.034;2023-08-20T10:17:23;24.50;95.60
6654;DHT22;3363;50.942;7.034;2023-08-20T10:19:50;24.50;94.30
6654;DHT22;3363;50.942;7.034;2023-08-20T10:22:19;24.60;91.70
6654;DHT22;3363;50.942;7.034;2023-08-20T10:24:49;24.70;96.70
6654;DHT22;3363;50.942;7.034;2023-08-20T10:27:25;25.00;87.00
6654;DHT22;3363;50.942;7.034;2023-08-20T10:29:52;25.20;83.00
6654;DHT22;3363;50.942;7.034;2023-08-20T10:32:19;25.40;86.40
6654;DHT22;3363;50.942;7.034;2023-08-20T10:34:49;25.60;79.30
6654;DHT22;3363;50.942;7.034;2023-08-20T10:37:19;25.70;81.90
6654;DHT22;3363;50.942;7.034;2023-08-20T10:39:54;26.00;79.40
6654;DHT22;3363;50.942;7.034;2023-08-20T10:42:22;26.10;77.60
6654;DHT22;3363;50.942;7.034;2023-08-20T10:44:57;26.00;76.90
6654;DHT22;3363;50.942;7.034;2023-08-20T10:47:24;25.70;78.00
6654;DHT22;3363;50.942;7.034;2023-08-20T10:49:51;25.70;78.50
6654;DHT22;3363;50.942;7.034;2023-08-20T10:52:18;25.70;73.20
6654;DHT22;3363;50.942;7.034;2023-08-20T10:54:45;25.70;76.90
6654;DHT22;3363;50.942;7.034;2023-08-20T10:57:13;25.80;76.70
6654;DHT22;3363;50.942;7.034;2023-08-20T10:59:39;25.90;77.50
6654;DHT22;3363;50.942;7.034;2023-08-20T11:02:07;25.60;73.70
6654;DHT22;3363;50.942;7.034;2023-08-20T11:04:38;25.60;73.30
6654;DHT22;3363;50.942;7.034;2023-08-20T11:07:05;25.50;75.80
6654;DHT22;3363;50.942;7.034;2023-08-20T11:09:32;25.50;75.50
6654;DHT22;3363;50.942;7.034;2023-08-20T11:12:00;25.70;75.60
6654;DHT22;3363;50.942;7.034;2023-08-20T11:14:28;25.90;71.50
6654;DHT22;3363;50.942;7.034;2023-08-20T11:16:55;26.10;73.50
6654;DHT22;3363;50.942;7.034;2023-08-20T11:19:23;26.20;71.70
6654;DHT22;3363;50.942;7.034;2023-08-20T11:21:50;26.40;71.00
6654;DHT22;3363;50.942;7.034;2023-08-20T11:24:17;26.40;71.10
6654;DHT22;3363;50.942;7.034;2023-08-20T11:26:44;26.50;69.80
6654;DHT22;3363;50.942;7.034;2023-08-20T11:29:11;26.50;69.70
6654;DHT22;3363;50.942;7.034;2023-08-20T11:31:40;26.70;69.10
6654;DHT22;3363;50.942;7.034;2023-08-20T11:34:07;26.80;69.10
6654;DHT22;3363;50.942;7.034;2023-08-20T11:36:34;26.90;67.40
6654;DHT22;3363;50.942;7.034;2023-08-20T11:39:01;27.00;68.20
6654;DHT22;3363;50.942;7.034;2023-08-20T11:41:27;26.90;69.00
6654;DHT22;3363;50.942;7.034;2023-08-20T11:43:54;26.90;68.50
6654;DHT22;3363;50.942;7.034;2023-08-20T11:46:21;26.90;68.60
6654;DHT22;3363;50.942;7.034;2023-08-20T11:49:03;26.90;69.30
6654;DHT22;3363;50.942;7.034;2023-08-20T11:51:30;26.90;66.60
6654;DHT22;3363;50.942;7.034;2023-08-20T11:54:01;26.80;64.00
6654;DHT22;3363;50.942;7.034;2023-08-20T11:56:27;26.70;68.90
6654;DHT22;3363;50.942;7.034;2023-08-20T11:58:58;26.70;72.00
6654;DHT22;3363;50.942;7.034;2023-08-20T12:01:25;26.70;68.10
6654;DHT22;3363;50.942;7.034;2023-08-20T12:03:51;26.80;68.50
6654;DHT22;3363;50.942;7.034;2023-08-20T12:06:20;27.00;67.30
6654;DHT22;3363;50.942;7.034;2023-08-20T12:08:48;27.10;65.80
6654;DHT22;3363;50.942;7.034;2023-08-20T12:11:14;27.20;66.30
6654;DHT22;3363;50.942;7.034;2023-08-20T12:13:41;27.20;63.90
6654;DHT22;3363;50.942;7.034;2023-08-20T12:16:08;27.00;69.80
6654;DHT22;3363;50.942;7.034;2023-08-20T12:18:34;26.70;66.40
6654;DHT22;3363;50.942;7.034;2023-08-20T12:21:01;26.70;66.70
6654;DHT22;3363;50.942;7.034;2023-08-20T12:23:29;26.80;68.30
6654;DHT22;3363;50.942;7.034;2023-08-20T12:25:55;26.80;67.00
6654;DHT22;3363;50.942;7.034;2023-08-20T12:28:22;26.90;66.50
6654;DHT22;3363;50.942;7.034;2023-08-20T12:30:50;27.00;63.30
6654;DHT22;3363;50.942;7.034;2023-08-20T12:33:17;27.20;63.80
6654;DHT22;3363;50.942;7.034;2023-08-20T12:35:44;27.20;64.00
6654;DHT22;3363;50.942;7.034;2023-08-20T12:38:11;27.30;63.00
6654;DHT22;3363;50.942;7.034;2023-08-20T12:40:39;27.30;65.30
6654;DHT22;3363;50.942;7.034;2023-08-20T12:43:06;27.40;59.20
6654;DHT22;3363;50.942;7.034;2023-08-20T12:45:32;27.40;62.30
6654;DHT22;3363;50.942;7.034;2023-08-20T12:47:59;27.40;63.20
6654;DHT22;3363;50.942;7.034;2023-08-20T12:50:26;27.40;62.10
6654;DHT22;3363;50.942;7.034;2023-08-20T12:52:52;27.50;63.40
6654;DHT22;3363;50.942;7.034;2023-08-20T12:55:19;27.50;61.90
6654;DHT22;3363;50.942;7.034;2023-08-20T12:57:53;27.60;62.20
6654;DHT22;3363;50.942;7.034;2023-08-20T13:00:21;27.70;61.40
6654;DHT22;3363;50.942;7.034;2023-08-20T13:05:16;27.70;61.90
6654;DHT22;3363;50.942;7.034;2023-08-20T13:07:43;27.60;60.60
6654;DHT22;3363;50.942;7.034;2023-08-20T13:10:10;27.40;63.40
6654;DHT22;3363;50.942;7.034;2023-08-20T13:12:38;27.40;63.80
6654;DHT22;3363;50.942;7.034;2023-08-20T13:15:08;27.60;60.50
6654;DHT22;3363;50.942;7.034;2023-08-20T13:17:36;27.60;61.40
6654;DHT22;3363;50.942;7.034;2023-08-20T13:20:03;27.70;59.90
6654;DHT22;3363;50.942;7.034;2023-08-20T13:22:30;27.90;61.60
6654;DHT22;3363;50.942;7.034;2023-08-20T13:24:57;28.00;59.80
6654;DHT22;3363;50.942;7.034;2023-08-20T13:27:24;28.00;60.60
6654;DHT22;3363;50.942;7.034;2023-08-20T13:29:51;28.00;59.10
6654;DHT22;3363;50.942;7.034;2023-08-20T13:32:19;28.00;60.30
6654;DHT22;3363;50.942;7.034;2023-08-20T13:34:45;27.90;54.40
6654;DHT22;3363;50.942;7.034;2023-08-20T13:37:12;27.90;58.80
6654;DHT22;3363;50.942;7.034;2023-08-20T13:39:39;27.90;57.10
6654;DHT22;3363;50.942;7.034;2023-08-20T13:42:05;27.80;56.70
6654;DHT22;3363;50.942;7.034;2023-08-20T13:44:32;27.50;60.90
6654;DHT22;3363;50.942;7.034;2023-08-20T13:46:59;27.50;62.20
6654;DHT22;3363;50.942;7.034;2023-08-20T13:49:27;27.40;61.00
6654;DHT22;3363;50.942;7.034;2023-08-20T13:51:54;27.50;61.60
6654;DHT22;3363;50.942;7.034;2023-08-20T13:54:21;27.70;61.00
6654;DHT22;3363;50.942;7.034;2023-08-20T13:56:47;27.90;58.50
6654;DHT22;3363;50.942;7.034;2023-08-20T13:59:14;27.80;55.40
6654;DHT22;3363;50.942;7.034;2023-08-20T14:01:41;27.80;59.40
6654;DHT22;3363;50.942;7.034;2023-08-20T14:04:07;27.50;59.50
6654;DHT22;3363;50.942;7.034;2023-08-20T14:06:35;27.50;58.10
6654;DHT22;3363;50.942;7.034;2023-08-20T14:09:02;27.50;58.30
6654;DHT22;3363;50.942;7.034;2023-08-20T14:11:29;27.50;60.20
6654;DHT22;3363;50.942;7.034;2023-08-20T14:13:56;27.40;61.10
6654;DHT22;3363;50.942;7.034;2023-08-20T14:16:23;27.30;62.30
6654;DHT22;3363;50.942;7.034;2023-08-20T14:18:49;27.30;62.80
6654;DHT22;3363;50.942;7.034;2023-08-20T14:21:16;27.30;62.90
6654;DHT22;3363;50.942;7.034;2023-08-20T14:23:44;27.40;62.40
6654;DHT22;3363;50.942;7.034;2023-08-20T14:26:11;27.50;62.30
6654;DHT22;3363;50.942;7.034;2023-08-20T14:28:37;27.50;61.90
6654;DHT22;3363;50.942;7.034;2023-08-20T14:31:04;27.50;62.00
6654;DHT22;3363;50.942;7.034;2023-08-20T14:33:31;27.60;60.00
6654;DHT22;3363;50.942;7.034;2023-08-20T14:35:58;27.70;60.20
6654;DHT22;3363;50.942;7.034;2023-08-20T14:38:24;27.80;56.70
6654;DHT22;3363;50.942;7.034;2023-08-20T14:40:53;27.90;58.00
6654;DHT22;3363;50.942;7.034;2023-08-20T14:43:19;27.90;58.20
6654;DHT22;3363;50.942;7.034;2023-08-20T14:45:46;27.60;58.60
6654;DHT22;3363;50.942;7.034;2023-08-20T14:48:12;27.70;58.80
6654;DHT22;3363;50.942;7.034;2023-08-20T14:50:39;27.70;57.10
6654;DHT22;3363;50.942;7.034;2023-08-20T14:53:06;27.70;57.50
6654;DHT22;3363;50.942;7.034;2023-08-20T14:55:32;27.80;57.70
6654;DHT22;3363;50.942;7.034;2023-08-20T14:58:01;27.80;59.50
6654;DHT22;3363;50.942;7.034;2023-08-20T15:00:31;27.60;58.20
6654;DHT22;3363;50.942;7.034;2023-08-20T15:02:57;27.40;60.20
6654;DHT22;3363;50.942;7.034;2023-08-20T15:05:24;27.50;59.20
6654;DHT22;3363;50.942;7.034;2023-08-20T15:07:50;27.50;58.60
6654;DHT22;3363;50.942;7.034;2023-08-20T15:10:17;27.20;60.20
6654;DHT22;3363;50.942;7.034;2023-08-20T15:12:44;27.10;65.10
6654;DHT22;3363;50.942;7.034;2023-08-20T15:15:12;27.20;63.50
6654;DHT22;3363;50.942;7.034;2023-08-20T15:17:40;27.50;60.10
6654;DHT22;3363;50.942;7.034;2023-08-20T15:20:07;27.80;58.10
6654;DHT22;3363;50.942;7.034;2023-08-20T15:22:35;27.80;54.90
6654;DHT22;3363;50.942;7.034;2023-08-20T15:25:02;27.90;56.10
6654;DHT22;3363;50.942;7.034;2023-08-20T15:27:30;28.00;57.20
6654;DHT22;3363;50.942;7.034;2023-08-20T15:29:56;28.00;55.40
6654;DHT22;3363;50.942;7.034;2023-08-20T15:32:24;27.90;55.20
6654;DHT22;3363;50.942;7.034;2023-08-20T15:34:52;27.90;55.00
6654;DHT22;3363;50.942;7.034;2023-08-20T15:37:19;27.90;53.80
6654;DHT22;3363;50.942;7.034;2023-08-20T15:39:46;27.90;54.10
6654;DHT22;3363;50.942;7.034;2023-08-20T15:42:12;27.90;53.80
6654;DHT22;3363;50.942;7.034;2023-08-20T15:44:39;27.80;56.10
6654;DHT22;3363;50.942;7.034;2023-08-20T15:47:06;27.80;56.20
6654;DHT22;3363;50.942;7.034;2023-08-20T15:49:34;27.80;55.10
6654;DHT22;3363;50.942;7.034;2023-08-20T15:52:01;27.60;56.80
6654;DHT22;3363;50.942;7.034;2023-08-20T15:54:28;27.50;55.00
6654;DHT22;3363;50.942;7.034;2023-08-20T15:56:55;27.50;55.30
6654;DHT22;3363;50.942;7.034;2023-08-20T15:59:21;27.60;55.50
6654;DHT22;3363;50.942;7.034;2023-08-20T16:01:48;27.50;55.20
6654;DHT22;3363;50.942;7.034;2023-08-20T16:04:14;27.50;56.30
6654;DHT22;3363;50.942;7.034;2023-08-20T16:06:42;27.60;56.10